Time;durP1;ratioP1;P1;durP2;ratioP2;P2;SDS_P1;SDS_P2;PMS_P1;PMS_P2;Temp;Humidity;BMP_temperature;BMP_pressure;BME280_temperature;BME280_humidity;BME280_pressure;Samples;Min_cycle;Max_cycle;Signal;HPM_P1;HPM_P2
2022/01/28 00:00:31;;;;;;;20.10;14.70;;;1.80;99.90;;;;;;4998425;28;20222;-89
2022/01/28 00:05:26;;;;;;;18.53;13.77;;;2.10;99.90;;;;;;5015303;28;20501;-89
2022/01/28 00:07:52;;;;;;;18.73;14.70;;;;;;;;;;4997643;28;20199;-90
2022/01/28 00:10:21;;;;;;;20.67;15.07;;;2.10;99.90;;;;;;4997745;28;20184;-89
2022/01/28 00:15:25;;;;;;;19.90;14.17;;;2.10;99.90;;;;;;5014739;28;20200;-89
2022/01/28 00:39:45;;;;;;;12.90;10.27;;;2.10;99.90;;;;;;4910953;28;20693;-89
2022/01/28 00:42:11;;;;;;;11.90;10.10;;;4.70;99.90;;;;;;4996844;28;20180;-89
2022/01/28 00:44:36;;;;;;;13.53;10.20;;;4.60;99.90;;;;;;4996994;28;20275;-90
2022/01/28 00:47:03;;;;;;;11.20;10.00;;;3.10;99.90;;;;;;4996562;28;20168;-88
2022/01/28 00:49:29;;;;;;;12.53;10.03;;;2.50;99.90;;;;;;4997069;28;20172;-89
2022/01/28 00:51:55;;;;;;;11.23;9.40;;;2.80;99.90;;;;;;4996549;28;20200;-91
2022/01/28 00:54:20;;;;;;;13.43;9.93;;;2.50;99.90;;;;;;4996684;28;20184;-88
2022/01/28 00:56:47;;;;;;;11.23;9.20;;;3.10;99.90;;;;;;4995909;28;20310;-89
2022/01/28 00:59:12;;;;;;;11.13;9.33;;;4.80;99.90;;;;;;4996769;28;20172;-89
2022/01/28 01:01:38;;;;;;;11.43;9.47;;;2.60;99.90;;;;;;4996423;28;20176;-88
2022/01/28 01:04:05;;;;;;;11.20;9.63;;;3.30;99.90;;;;;;4995903;28;20173;-88
2022/01/28 01:06:31;;;;;;;10.37;8.93;;;2.60;99.90;;;;;;5013845;28;20614;-88
2022/01/28 01:08:58;;;;;;;10.67;9.30;;;2.70;99.90;;;;;;4995935;28;20204;-89
2022/01/28 01:11:24;;;;;;;9.43;8.37;;;3.50;99.90;;;;;;4996060;28;20211;-90
2022/01/28 01:13:51;;;;;;;9.70;8.60;;;4.90;99.90;;;;;;4996426;28;20177;-88
2022/01/28 01:16:24;;;;;;;10.30;9.07;;;4.80;99.90;;;;;;4996413;28;20226;-90
2022/01/28 01:19:11;;;;;;;10.87;8.93;;;2.80;99.90;;;;;;5013594;28;20605;-88
2022/01/28 01:21:39;;;;;;;10.73;8.57;;;4.40;99.90;;;;;;5013944;28;20239;-89
2022/01/28 01:24:08;;;;;;;10.23;8.40;;;5.20;99.90;;;;;;4996013;28;20216;-89
2022/01/28 01:26:37;;;;;;;9.87;8.00;;;2.80;99.90;;;;;;4996195;28;20609;-89
2022/01/28 01:29:11;;;;;;;9.70;7.90;;;2.90;99.90;;;;;;4996224;28;20172;-90
2022/01/28 01:31:40;;;;;;;8.20;7.13;;;2.80;99.90;;;;;;4996256;28;20203;-90
2022/01/28 01:34:15;;;;;;;8.73;7.83;;;2.90;99.90;;;;;;4996206;28;20177;-90
2022/01/28 01:36:42;;;;;;;10.23;7.50;;;5.20;99.90;;;;;;5013452;28;20176;-89
2022/01/28 01:39:09;;;;;;;8.80;7.60;;;4.40;99.90;;;;;;4996084;28;20180;-88
2022/01/28 01:41:41;;;;;;;8.10;7.13;;;2.90;99.90;;;;;;4996095;28;20267;-89
2022/01/28 01:44:24;;;;;;;8.90;7.17;;;4.40;99.90;;;;;;4996026;28;20175;-90
2022/01/28 01:52:39;;;;;;;7.73;6.93;;;2.90;99.90;;;;;;5013099;28;20215;-87
2022/01/28 01:55:06;;;;;;;7.90;7.10;;;2.90;99.90;;;;;;4995477;28;20633;-90
2022/01/28 01:57:33;;;;;;;8.00;7.20;;;3.00;99.90;;;;;;4995387;28;20183;-89
2022/01/28 01:59:58;;;;;;;8.20;7.10;;;3.30;99.90;;;;;;4996765;28;20179;-89
2022/01/28 02:02:24;;;;;;;8.23;7.37;;;;;;;;;;5000854;28;20176;-89
2022/01/28 02:04:50;;;;;;;8.03;7.17;;;3.10;99.90;;;;;;5020490;28;20165;-90
2022/01/28 02:07:16;;;;;;;7.50;6.40;;;3.00;99.90;;;;;;5020335;28;20248;-89
2022/01/28 02:09:42;;;;;;;9.47;6.80;;;5.60;99.90;;;;;;5018939;28;20191;-88
2022/01/28 02:12:09;;;;;;;8.20;6.97;;;4.40;99.90;;;;;;5020279;28;20212;-90
2022/01/28 02:14:35;;;;;;;8.67;7.73;;;2.90;99.90;;;;;;5024257;28;20218;-88
2022/01/28 02:17:02;;;;;;;8.13;7.30;;;3.00;99.90;;;;;;5012234;28;20184;-89
2022/01/28 02:19:28;;;;;;;8.83;7.17;;;3.00;99.90;;;;;;5003997;28;20821;-88
2022/01/28 02:21:54;;;;;;;8.17;7.00;;;3.00;99.90;;;;;;5004295;28;20200;-89
2022/01/28 02:24:30;;;;;;;7.93;7.13;;;2.90;99.90;;;;;;5001785;28;20184;-89
2022/01/28 02:26:55;;;;;;;8.27;7.33;;;2.90;99.90;;;;;;5002163;28;20176;-88
2022/01/28 02:29:30;;;;;;;9.07;7.37;;;2.90;99.90;;;;;;5001765;28;20186;-88
2022/01/28 02:31:57;;;;;;;8.33;7.00;;;2.90;99.90;;;;;;5001846;28;20207;-88
2022/01/28 02:34:22;;;;;;;8.13;7.33;;;3.00;99.90;;;;;;5001428;28;20176;-89
2022/01/28 02:36:48;;;;;;;7.90;6.30;;;3.10;99.90;;;;;;5001798;28;20176;-89
2022/01/28 02:39:14;;;;;;;7.87;7.00;;;3.00;99.90;;;;;;5002041;28;20172;-89
2022/01/28 02:41:44;;;;;;;7.77;6.90;;;;;;;;;;5001605;28;20578;-89
2022/01/28 02:46:54;;;;;;;7.93;6.73;;;3.00;99.90;;;;;;5019036;28;20168;-89
2022/01/28 02:49:20;;;;;;;7.93;6.80;;;4.10;99.90;;;;;;5002188;28;20168;-89
2022/01/28 02:51:46;;;;;;;8.07;6.93;;;;;;;;;;5001598;28;20659;-90
2022/01/28 02:54:15;;;;;;;7.73;6.53;;;2.90;99.90;;;;;;5002252;28;20254;-89
2022/01/28 02:56:49;;;;;;;8.47;6.47;;;5.40;99.90;;;;;;5001705;28;20251;-90
2022/01/28 02:59:15;;;;;;;8.03;6.77;;;4.40;99.90;;;;;;5002388;28;20188;-90
2022/01/28 03:01:40;;;;;;;6.97;5.90;;;2.90;99.90;;;;;;5002512;28;20575;-89
2022/01/28 03:04:09;;;;;;;6.57;5.87;;;2.90;99.90;;;;;;5002548;28;20234;-89
2022/01/28 03:06:34;;;;;;;6.77;6.07;;;3.00;99.90;;;;;;5001932;28;20204;-89
2022/01/28 03:09:16;;;;;;;6.80;6.00;;;2.90;99.90;;;;;;5001423;28;20208;-88
2022/01/28 03:11:44;;;;;;;7.20;6.07;;;3.00;99.90;;;;;;5001409;28;20291;-90
2022/01/28 03:14:33;;;;;;;7.63;5.90;;;2.80;99.90;;;;;;5000435;28;20176;-89
2022/01/28 03:19:42;;;;;;;6.20;5.33;;;3.80;99.90;;;;;;5018491;28;20250;-88
2022/01/28 03:22:08;;;;;;;6.27;5.40;;;5.40;99.90;;;;;;5001158;28;20226;-90
2022/01/28 03:24:34;;;;;;;6.60;5.90;;;2.80;99.90;;;;;;5000684;28;20168;-88
2022/01/28 03:27:05;;;;;;;6.50;5.80;;;2.80;99.90;;;;;;4997819;28;20204;-88
2022/01/28 03:29:31;;;;;;;6.53;5.83;;;2.80;99.90;;;;;;4998144;28;20588;-90
2022/01/28 03:31:57;;;;;;;6.77;5.73;;;;;;;;;;4998163;28;20238;-88
2022/01/28 03:34:23;;;;;;;6.37;5.27;;;2.80;99.90;;;;;;4997171;28;20168;-89
2022/01/28 03:36:51;;;;;;;7.47;5.80;;;4.50;99.90;;;;;;4997562;28;20180;-89
2022/01/28 03:39:17;;;;;;;6.27;5.60;;;2.80;99.90;;;;;;4997872;28;20209;-89
2022/01/28 03:41:42;;;;;;;6.30;5.67;;;3.90;99.90;;;;;;4997849;28;20758;-88
2022/01/28 03:44:09;;;;;;;8.17;6.30;;;;;;;;;;4998153;28;20195;-89
2022/01/28 03:46:35;;;;;;;7.53;6.40;;;;;;;;;;4996448;28;20169;-90
2022/01/28 03:49:03;;;;;;;7.40;5.90;;;2.70;99.90;;;;;;5014524;28;20195;-89
2022/01/28 03:51:28;;;;;;;7.43;5.97;;;3.00;99.90;;;;;;4996934;28;20206;-88
2022/01/28 03:53:55;;;;;;;7.23;5.87;;;;;;;;;;4996870;28;20176;-90
2022/01/28 03:56:21;;;;;;;8.70;6.40;;;2.70;99.90;;;;;;4997059;28;20172;-88
2022/01/28 03:58:47;;;;;;;6.97;6.17;;;;;;;;;;4996326;28;20179;-89
2022/01/28 04:01:20;;;;;;;8.17;6.37;;;2.90;99.90;;;;;;4996963;28;20227;-88
2022/01/28 04:11:48;;;;;;;8.93;6.60;;;4.50;99.90;;;;;;5014757;28;20206;-89
2022/01/28 04:15:04;;;;;;;7.93;6.57;;;5.30;99.90;;;;;;4996424;28;20180;-89
2022/01/28 04:19:31;;;;;;;8.20;6.33;;;2.90;99.90;;;;;;5014609;28;20185;-89
2022/01/28 04:21:57;;;;;;;9.63;7.27;;;;;;;;;;4996323;28;20230;-90
2022/01/28 04:24:23;;;;;;;7.80;6.83;;;2.80;99.90;;;;;;4995658;28;20172;-89
2022/01/28 04:26:49;;;;;;;7.57;6.70;;;;;;;;;;4995750;28;20173;-89
2022/01/28 04:29:15;;;;;;;9.27;6.97;;;2.80;99.90;;;;;;4996032;28;20178;-90
2022/01/28 04:31:44;;;;;;;7.93;6.27;;;4.30;99.90;;;;;;5014880;28;20196;-90
2022/01/28 04:34:11;;;;;;;9.23;6.80;;;2.80;99.90;;;;;;4996918;28;20176;-90
2022/01/28 04:36:44;;;;;;;7.93;6.73;;;4.30;99.90;;;;;;4996345;28;20172;-89
2022/01/28 04:39:27;;;;;;;7.70;6.87;;;2.70;99.90;;;;;;4996585;28;20169;-89
2022/01/28 04:42:02;;;;;;;10.07;7.57;;;5.30;99.90;;;;;;4996681;28;20176;-89
2022/01/28 04:44:39;;;;;;;9.27;7.40;;;2.70;99.90;;;;;;4996894;28;20191;-89
2022/01/28 04:47:46;;;;;;;9.77;7.43;;;2.70;99.90;;;;;;4996348;28;20180;-89
2022/01/28 05:03:25;;;;;;;9.20;6.87;;;2.50;99.90;;;;;;5012915;28;20178;-90
2022/01/28 05:26:40;;;;;;;4.87;4.20;;;2.30;99.90;;;;;;5012816;28;20196;-90
2022/01/28 05:29:05;;;;;;;4.83;3.67;;;2.40;99.90;;;;;;4995979;28;20259;-89
2022/01/28 05:31:31;;;;;;;4.67;3.77;;;2.50;99.90;;;;;;4995671;28;20304;-89
2022/01/28 05:33:57;;;;;;;6.90;4.00;;;;;;;;;;4996031;28;20620;-89
2022/01/28 05:36:23;;;;;;;6.10;4.17;;;2.40;99.90;;;;;;4995376;28;20227;-91
2022/01/28 05:38:49;;;;;;;4.90;3.93;;;4.50;99.90;;;;;;4995900;28;20176;-89
2022/01/28 05:41:14;;;;;;;3.83;3.43;;;2.40;99.90;;;;;;4996224;28;20271;-90
2022/01/28 05:43:40;;;;;;;4.77;3.73;;;3.10;99.90;;;;;;4996597;28;20263;-89
2022/01/28 05:46:08;;;;;;;5.33;4.33;;;;;;;;;;4996500;28;20172;-90
2022/01/28 05:48:33;;;;;;;7.10;4.23;;;2.40;99.90;;;;;;4995936;28;20303;-89
2022/01/28 05:50:59;;;;;;;6.27;4.83;;;2.50;99.90;;;;;;5013488;28;20259;-90
2022/01/28 05:53:25;;;;;;;6.27;4.83;;;;;;;;;;5013428;28;20294;-88
2022/01/28 05:55:51;;;;;;;7.20;5.20;;;2.30;99.90;;;;;;4995522;28;20176;-89
2022/01/28 05:58:17;;;;;;;7.13;5.63;;;3.70;99.90;;;;;;4995190;28;20208;-89
2022/01/28 06:00:43;;;;;;;7.97;5.73;;;;;;;;;;4995435;28;20177;-88
2022/01/28 06:03:09;;;;;;;8.47;5.37;;;2.40;99.90;;;;;;4995362;28;20585;-90
2022/01/28 06:05:35;;;;;;;10.17;5.80;;;2.30;99.90;;;;;;4995412;28;20169;-89
2022/01/28 06:08:01;;;;;;;8.27;6.00;;;2.30;99.90;;;;;;4995331;28;20191;-89
2022/01/28 06:10:27;;;;;;;8.10;6.20;;;4.30;99.90;;;;;;4995747;28;20673;-90
2022/01/28 06:12:53;;;;;;;8.17;5.67;;;2.20;99.90;;;;;;4995056;28;20294;-89
2022/01/28 06:15:19;;;;;;;7.63;6.33;;;2.20;99.90;;;;;;4995008;28;20177;-90
2022/01/28 06:17:45;;;;;;;8.73;6.17;;;;;;;;;;4995534;28;20226;-90
2022/01/28 06:20:13;;;;;;;8.40;6.13;;;2.50;99.90;;;;;;4995142;28;20215;-88
2022/01/28 06:22:43;;;;;;;7.67;6.77;;;2.20;99.90;;;;;;4995215;28;20168;-87
2022/01/28 06:25:10;;;;;;;8.00;6.40;;;3.50;99.90;;;;;;4994953;28;20176;-89
2022/01/28 06:27:36;;;;;;;8.07;5.93;;;3.80;99.90;;;;;;4995184;28;20182;-90
2022/01/28 06:30:04;;;;;;;7.13;5.63;;;2.20;99.90;;;;;;4994769;28;20236;-89
2022/01/28 06:32:31;;;;;;;9.50;6.23;;;2.30;99.90;;;;;;4995202;28;20269;-89
2022/01/28 06:34:58;;;;;;;9.47;5.93;;;2.30;99.90;;;;;;5012589;28;20183;-88
2022/01/28 06:37:23;;;;;;;8.67;5.90;;;2.40;99.90;;;;;;4995255;28;20648;-89
2022/01/28 06:39:49;;;;;;;6.03;4.87;;;2.40;99.90;;;;;;4995189;28;20204;-89
2022/01/28 06:42:14;;;;;;;8.20;6.10;;;2.30;99.90;;;;;;5012523;28;20264;-89
2022/01/28 06:44:40;;;;;;;8.53;5.77;;;2.50;99.90;;;;;;4996677;28;20172;-89
2022/01/28 06:47:10;;;;;;;7.57;5.60;;;2.50;99.90;;;;;;4995288;28;20168;-89
2022/01/28 06:49:37;;;;;;;9.17;5.70;;;2.60;99.90;;;;;;4995786;28;20177;-90
2022/01/28 06:52:03;;;;;;;9.30;6.20;;;2.60;99.90;;;;;;4995061;28;20283;-89
2022/01/28 06:54:29;;;;;;;9.37;6.37;;;2.50;99.90;;;;;;4995203;28;20219;-88
2022/01/28 06:56:54;;;;;;;7.33;6.03;;;2.40;99.90;;;;;;4995472;28;20207;-89
2022/01/28 06:59:20;;;;;;;9.93;6.27;;;4.60;99.90;;;;;;4994951;28;20216;-88
2022/01/28 07:01:45;;;;;;;9.70;6.40;;;2.30;99.90;;;;;;4997299;28;20212;-88
2022/01/28 07:04:11;;;;;;;11.07;6.30;;;;;;;;;;4998781;28;20177;-89
2022/01/28 07:06:37;;;;;;;9.33;6.60;;;2.20;99.90;;;;;;4998872;28;20259;-88
2022/01/28 07:09:03;;;;;;;9.30;6.03;;;;;;;;;;4999005;28;20636;-88
2022/01/28 07:11:29;;;;;;;8.80;6.40;;;2.20;99.90;;;;;;4998538;28;20656;-89
2022/01/28 07:13:54;;;;;;;8.37;6.90;;;2.20;99.90;;;;;;4998363;28;20254;-88
2022/01/28 07:16:20;;;;;;;9.77;6.87;;;2.30;99.90;;;;;;4998533;28;20183;-89
2022/01/28 07:18:46;;;;;;;7.27;5.77;;;2.30;99.90;;;;;;4998494;28;20610;-88
2022/01/28 07:21:11;;;;;;;8.30;6.50;;;2.40;99.90;;;;;;4999017;28;20184;-89
2022/01/28 07:23:37;;;;;;;7.27;5.60;;;2.40;99.90;;;;;;5015929;28;20628;-90
2022/01/28 07:26:02;;;;;;;8.47;5.80;;;2.40;99.90;;;;;;4998400;28;20239;-89
2022/01/28 07:28:28;;;;;;;7.17;6.17;;;4.10;99.90;;;;;;4998353;28;20543;-90
2022/01/28 07:30:54;;;;;;;8.37;5.60;;;3.70;99.90;;;;;;4998051;28;20179;-89
2022/01/28 07:33:19;;;;;;;7.77;5.80;;;3.90;99.90;;;;;;4998620;28;20244;-90
2022/01/28 07:35:46;;;;;;;6.53;4.90;;;2.50;99.90;;;;;;4998503;28;20180;-89
2022/01/28 07:38:12;;;;;;;7.47;5.20;;;2.60;99.90;;;;;;5000474;28;20631;-90
2022/01/28 07:40:38;;;;;;;7.17;5.00;;;;;;;;;;5039271;28;20164;-90
2022/01/28 07:43:04;;;;;;;8.10;5.23;;;2.50;99.90;;;;;;5022654;28;20165;-89
2022/01/28 07:45:29;;;;;;;8.87;5.67;;;2.50;99.90;;;;;;5039313;28;20161;-89
2022/01/28 07:47:55;;;;;;;7.00;5.03;;;;;;;;;;5020882;28;20180;-90
2022/01/28 07:50:21;;;;;;;8.30;4.90;;;2.50;99.90;;;;;;5022538;28;20183;-90
2022/01/28 07:52:47;;;;;;;8.00;5.50;;;2.50;99.90;;;;;;5022610;28;20200;-89
2022/01/28 07:55:14;;;;;;;6.80;5.27;;;3.20;99.90;;;;;;5022264;28;20182;-88
2022/01/28 07:57:41;;;;;;;7.23;5.30;;;3.80;99.90;;;;;;5005436;28;20219;-88
2022/01/28 08:00:08;;;;;;;6.57;4.87;;;3.40;99.90;;;;;;4999516;28;20208;-90
2022/01/28 08:02:35;;;;;;;6.10;5.07;;;2.20;99.90;;;;;;4999073;28;20267;-88
2022/01/28 08:05:00;;;;;;;6.63;4.77;;;4.30;99.90;;;;;;4998467;28;20224;-88
2022/01/28 08:07:26;;;;;;;7.80;5.47;;;3.90;99.90;;;;;;4996788;28;20176;-89
2022/01/28 08:09:52;;;;;;;6.43;5.37;;;3.80;99.90;;;;;;4997128;28;20172;-88
2022/01/28 08:12:18;;;;;;;7.80;5.60;;;;;;;;;;4997096;28;20208;-89
2022/01/28 08:14:44;;;;;;;10.33;5.77;;;2.00;99.90;;;;;;5014737;28;20723;-88
2022/01/28 08:17:11;;;;;;;8.33;5.97;;;;;;;;;;4997595;28;20173;-89
2022/01/28 08:19:37;;;;;;;8.03;5.37;;;2.10;99.90;;;;;;5014568;28;20180;-88
2022/01/28 08:22:03;;;;;;;7.63;5.33;;;2.10;99.90;;;;;;4997474;28;20176;-89
2022/01/28 08:24:29;;;;;;;8.63;5.20;;;2.10;99.90;;;;;;4996516;28;20176;-89
2022/01/28 08:26:55;;;;;;;9.27;5.63;;;;;;;;;;4995415;28;20176;-90
2022/01/28 08:29:21;;;;;;;8.53;5.77;;;2.10;99.90;;;;;;4997438;28;20180;-90
2022/01/28 08:31:47;;;;;;;5.73;4.47;;;2.10;99.90;;;;;;4997558;28;20196;-90
2022/01/28 08:34:12;;;;;;;7.87;4.63;;;4.00;99.90;;;;;;5010910;28;20172;-89
2022/01/28 08:36:39;;;;;;;6.93;5.00;;;;;;;;;;5018070;28;20174;-89
2022/01/28 08:39:06;;;;;;;6.40;4.60;;;2.40;99.90;;;;;;5018038;28;20176;-90
2022/01/28 08:41:35;;;;;;;6.63;4.93;;;2.40;99.90;;;;;;5017741;28;20175;-90
2022/01/28 08:44:00;;;;;;;6.40;4.90;;;4.40;99.90;;;;;;5010049;28;20271;-89
2022/01/28 08:46:26;;;;;;;7.80;4.70;;;4.20;99.90;;;;;;5013392;28;20573;-89
2022/01/28 08:48:52;;;;;;;6.13;4.20;;;4.90;99.90;;;;;;4997028;28;20173;-89
2022/01/28 08:51:17;;;;;;;5.53;4.50;;;2.40;99.90;;;;;;4996783;28;20247;-88
2022/01/28 08:53:43;;;;;;;7.83;4.50;;;2.40;99.90;;;;;;4996072;28;20180;-90
2022/01/28 08:56:09;;;;;;;5.97;4.50;;;2.50;99.90;;;;;;4996868;28;20345;-90
2022/01/28 08:58:35;;;;;;;5.23;4.50;;;;;;;;;;4996383;28;20237;-90
2022/01/28 09:01:02;;;;;;;7.10;4.67;;;2.50;99.90;;;;;;4996936;28;20179;-90
2022/01/28 09:03:27;;;;;;;7.47;4.70;;;4.00;99.90;;;;;;4995473;28;20525;-89
2022/01/28 09:05:53;;;;;;;6.07;4.40;;;;;;;;;;4996247;28;20176;-89
2022/01/28 09:08:19;;;;;;;7.13;4.57;;;2.70;99.90;;;;;;5005212;28;20203;-90
2022/01/28 09:10:56;;;;;;;6.27;4.40;;;3.10;99.90;;;;;;4996614;28;20181;-89
2022/01/28 09:13:25;;;;;;;7.20;4.57;;;4.10;99.90;;;;;;4996339;28;20203;-90
2022/01/28 09:15:54;;;;;;;9.17;4.37;;;5.30;99.90;;;;;;4996399;28;20583;-89
2022/01/28 09:18:20;;;;;;;6.77;4.90;;;4.80;99.90;;;;;;4996552;28;20172;-89
2022/01/28 09:20:46;;;;;;;5.60;4.57;;;3.90;99.90;;;;;;4995889;28;20223;-88
2022/01/28 09:23:13;;;;;;;6.93;4.80;;;4.40;99.90;;;;;;4995588;28;20184;-89
2022/01/28 09:25:38;;;;;;;5.67;4.73;;;4.80;99.90;;;;;;4995682;28;20267;-90
2022/01/28 09:28:05;;;;;;;7.93;5.17;;;2.80;99.90;;;;;;4994759;28;20263;-89
2022/01/28 09:30:31;;;;;;;7.70;4.80;;;4.80;99.90;;;;;;4995557;28;20176;-89
2022/01/28 09:32:58;;;;;;;7.33;4.90;;;5.20;99.90;;;;;;4995059;28;20283;-89
2022/01/28 09:35:24;;;;;;;10.00;5.03;;;2.90;99.90;;;;;;4995227;28;20224;-90
2022/01/28 09:37:51;;;;;;;8.93;4.80;;;3.50;99.90;;;;;;4994479;28;20183;-88
2022/01/28 09:40:18;;;;;;;9.17;4.73;;;4.60;99.90;;;;;;4995103;28;20177;-88
2022/01/28 09:42:45;;;;;;;5.70;4.33;;;5.10;99.90;;;;;;4995790;28;20498;-88
2022/01/28 09:45:16;;;;;;;6.80;4.73;;;3.10;99.90;;;;;;4995187;28;20187;-87
2022/01/28 09:47:42;;;;;;;6.87;4.60;;;4.30;99.90;;;;;;4993934;28;20176;-88
2022/01/28 09:50:08;;;;;;;7.17;4.37;;;4.40;99.90;;;;;;4994145;28;20694;-87
2022/01/28 09:52:34;;;;;;;6.50;4.50;;;3.50;99.90;;;;;;4994276;28;20207;-89
2022/01/28 09:55:00;;;;;;;7.50;4.30;;;3.60;99.90;;;;;;4994730;28;20180;-87
2022/01/28 09:57:26;;;;;;;6.53;4.30;;;4.50;99.90;;;;;;4994962;28;20179;-88
2022/01/28 09:59:52;;;;;;;5.07;3.90;;;3.90;99.90;;;;;;4994085;28;20176;-89
2022/01/28 10:02:17;;;;;;;7.47;4.00;;;4.10;99.90;;;;;;4994693;28;20212;-89
2022/01/28 10:04:43;;;;;;;4.83;3.77;;;4.50;99.90;;;;;;4994910;28;20180;-88
2022/01/28 10:07:16;;;;;;;4.27;3.50;;;3.90;99.90;;;;;;4994830;28;20250;-88
2022/01/28 10:10:00;;;;;;;6.07;3.50;;;5.20;99.90;;;;;;4994525;28;20606;-88
2022/01/28 10:12:35;;;;;;;5.37;3.57;;;3.60;99.90;;;;;;4994239;28;20207;-89
2022/01/28 10:15:17;;;;;;;5.40;3.57;;;4.70;99.90;;;;;;4995499;28;20187;-89
2022/01/28 10:17:58;;;;;;;6.87;3.63;;;3.50;99.90;;;;;;4988688;28;20639;-87
2022/01/28 10:20:25;;;;;;;6.20;3.30;;;3.90;99.90;;;;;;4993847;28;20282;-90
2022/01/28 10:23:01;;;;;;;4.47;3.03;;;3.40;99.90;;;;;;4994621;28;20262;-89
2022/01/28 10:25:33;;;;;;;3.50;2.13;;;5.10;99.90;;;;;;4994638;28;20172;-88
2022/01/28 10:28:01;;;;;;;3.93;2.40;;;7.70;99.90;;;;;;4995223;28;20196;-90
2022/01/28 10:30:27;;;;;;;4.60;2.57;;;10.50;99.90;;;;;;4995010;28;20259;-88
2022/01/28 10:33:17;;;;;;;4.67;2.40;;;8.00;99.90;;;;;;4995537;28;20679;-89
2022/01/28 10:36:02;;;;;;;3.17;2.20;;;7.10;99.90;;;;;;4997199;28;20288;-87
2022/01/28 10:38:41;;;;;;;4.47;2.43;;;7.80;99.90;;;;;;4999511;28;20179;-88
2022/01/28 10:41:09;;;;;;;4.87;2.70;;;5.00;99.90;;;;;;4999040;28;20179;-88
2022/01/28 10:43:47;;;;;;;3.03;2.20;;;4.80;99.90;;;;;;4999536;28;20180;-87
2022/01/28 10:46:35;;;;;;;5.17;2.60;;;5.80;99.90;;;;;;4998284;28;20259;-88
2022/01/28 10:49:08;;;;;;;5.50;2.73;;;4.60;99.90;;;;;;4999110;28;20243;-86
2022/01/28 10:51:41;;;;;;;3.77;2.03;;;4.60;99.90;;;;;;4998540;28;20172;-88
2022/01/28 10:54:14;;;;;;;2.67;2.33;;;4.50;99.90;;;;;;4999164;28;20177;-87
2022/01/28 10:56:54;;;;;;;26.60;16.67;;;4.70;99.90;;;;;;5015809;28;20165;-88
2022/01/28 10:59:23;;;;;;;50.30;24.23;;;4.40;99.90;;;;;;4999171;28;20183;-87
2022/01/28 11:01:49;;;;;;;5.33;2.70;;;5.80;99.90;;;;;;4998990;28;20267;-88
2022/01/28 11:04:17;;;;;;;4.97;2.40;;;6.20;99.90;;;;;;4998657;28;20638;-87
2022/01/28 11:06:43;;;;;;;3.97;2.47;;;5.30;99.90;;;;;;4998772;28;20513;-88
2022/01/28 11:09:11;;;;;;;3.80;2.30;;;6.10;99.90;;;;;;5015543;28;20654;-88
2022/01/28 11:11:40;;;;;;;6.17;2.50;;;2.30;99.90;;;;;;4998659;28;20172;-90
2022/01/28 11:14:07;;;;;;;4.33;2.33;;;6.20;99.90;;;;;;4998349;28;20176;-87
2022/01/28 11:16:33;;;;;;;2.67;1.80;;;6.00;99.90;;;;;;4998316;28;20180;-88
2022/01/28 11:18:59;;;;;;;4.43;2.40;;;3.90;99.90;;;;;;4998247;28;20183;-88
2022/01/28 11:21:46;;;;;;;4.17;2.47;;;3.80;99.90;;;;;;4998010;28;20188;-89
2022/01/28 11:24:39;;;;;;;3.53;2.40;;;3.80;99.90;;;;;;4998382;28;20173;-89
2022/01/28 11:27:18;;;;;;;5.47;2.30;;;4.00;99.90;;;;;;4998260;28;20524;-88
2022/01/28 11:29:44;;;;;;;2.47;1.80;;;4.00;99.90;;;;;;4998826;28;20172;-88
2022/01/28 11:32:15;;;;;;;2.83;1.90;;;4.70;99.90;;;;;;4998981;28;20207;-89
2022/01/28 11:35:02;;;;;;;3.67;2.23;;;3.90;99.90;;;;;;4998990;28;20295;-88
2022/01/28 11:37:30;;;;;;;3.90;2.13;;;3.80;99.90;;;;;;4998404;28;20226;-88
2022/01/28 11:40:14;;;;;;;4.27;2.17;;;5.40;99.90;;;;;;4998135;28;20172;-87
2022/01/28 11:42:40;;;;;;;4.90;2.00;;;3.70;99.90;;;;;;4997544;28;20176;-88
2022/01/28 11:45:08;;;;;;;5.80;1.80;;;3.60;99.90;;;;;;5015528;28;20513;-88
2022/01/28 11:47:52;;;;;;;2.83;1.93;;;3.50;99.90;;;;;;4996929;28;20692;-87
2022/01/28 11:50:19;;;;;;;3.93;2.20;;;3.50;99.90;;;;;;4998174;28;20528;-88
2022/01/28 11:52:54;;;;;;;6.10;2.30;;;3.40;99.90;;;;;;4997670;28;20208;-88
2022/01/28 11:55:26;;;;;;;5.83;2.43;;;3.30;99.90;;;;;;4997841;28;20270;-88
2022/01/28 11:57:57;;;;;;;3.63;1.93;;;3.00;99.90;;;;;;4997393;28;20169;-88
2022/01/28 12:00:30;;;;;;;3.23;2.03;;;3.60;99.90;;;;;;4997942;28;20204;-88
2022/01/28 12:02:56;;;;;;;4.40;1.97;;;2.90;99.90;;;;;;4997487;28;20505;-89
2022/01/28 12:05:28;;;;;;;3.63;1.87;;;3.50;99.90;;;;;;4996801;28;20208;-88
2022/01/28 12:07:55;;;;;;;4.23;1.93;;;3.80;99.90;;;;;;4997767;28;20195;-88
2022/01/28 12:10:23;;;;;;;3.80;1.70;;;4.00;99.90;;;;;;4997127;28;20169;-88
2022/01/28 12:13:22;;;;;;;3.63;1.70;;;4.30;99.90;;;;;;4997285;28;20211;-88
2022/01/28 12:18:24;;;;;;;2.33;1.27;;;9.30;99.90;;;;;;5014871;28;20207;-90
2022/01/28 12:20:50;;;;;;;2.87;1.33;;;9.60;99.90;;;;;;4997035;28;20195;-88
2022/01/28 12:23:16;;;;;;;2.47;1.20;;;10.60;99.90;;;;;;4997357;28;20530;-88
2022/01/28 12:25:41;;;;;;;3.03;1.30;;;13.50;99.90;;;;;;5014178;28;20172;-88
2022/01/28 12:28:10;;;;;;;2.20;1.00;;;12.50;99.90;;;;;;4996648;28;20180;-88
2022/01/28 12:30:36;;;;;;;2.10;1.30;;;12.90;99.90;;;;;;4977565;28;20614;-88
2022/01/28 12:33:01;;;;;;;2.10;1.27;;;14.00;99.90;;;;;;4977333;28;20208;-88
2022/01/28 12:35:27;;;;;;;3.33;1.30;;;14.50;99.90;;;;;;4977417;28;20180;-89
2022/01/28 12:37:59;;;;;;;3.77;1.63;;;14.80;99.90;;;;;;4994242;28;20180;-89
2022/01/28 12:40:29;;;;;;;4.43;1.73;;;15.20;99.90;;;;;;4977399;28;20268;-88
2022/01/28 12:42:55;;;;;;;24.50;17.17;;;13.60;99.90;;;;;;4976656;28;20200;-89
2022/01/28 12:45:20;;;;;;;4.33;1.70;;;13.00;99.90;;;;;;4977202;28;20618;-88
2022/01/28 12:47:46;;;;;;;3.30;1.60;;;10.70;99.90;;;;;;4976684;28;20176;-88
2022/01/28 12:50:13;;;;;;;3.80;1.87;;;9.80;99.90;;;;;;4977567;28;20181;-88
2022/01/28 12:52:39;;;;;;;4.23;2.10;;;8.40;99.90;;;;;;4977976;28;20223;-88
2022/01/28 12:55:05;;;;;;;3.60;1.80;;;8.10;99.90;;;;;;4976674;28;20177;-88
2022/01/28 12:57:32;;;;;;;3.43;1.60;;;7.80;99.90;;;;;;4976751;28;20173;-88
2022/01/28 12:59:58;;;;;;;3.73;1.70;;;8.30;99.90;;;;;;4976665;28;20177;-89
2022/01/28 13:02:24;;;;;;;2.67;1.33;;;7.20;99.90;;;;;;4977378;28;20175;-88
2022/01/28 13:05:12;;;;;;;3.70;1.80;;;8.00;99.90;;;;;;4977083;28;20169;-88
2022/01/28 13:10:31;;;;;;;2.40;1.50;;;9.00;99.90;;;;;;4966415;28;20189;-89
2022/01/28 13:13:09;;;;;;;4.83;1.80;;;8.00;99.90;;;;;;4977808;28;20292;-89
2022/01/28 13:15:36;;;;;;;5.93;1.70;;;8.00;99.90;;;;;;4976749;28;20231;-89
2022/01/28 13:18:03;;;;;;;5.70;1.70;;;7.10;99.90;;;;;;4993255;28;20192;-88
2022/01/28 13:20:41;;;;;;;5.60;1.93;;;5.70;99.90;;;;;;4996455;28;20191;-89
2022/01/28 13:23:09;;;;;;;7.77;1.93;;;5.80;99.90;;;;;;5013530;28;20175;-88
2022/01/28 13:25:35;;;;;;;5.40;2.13;;;5.60;99.90;;;;;;4995559;28;20180;-88
2022/01/28 13:28:03;;;;;;;5.67;1.90;;;7.00;99.90;;;;;;4995435;28;20176;-87
2022/01/28 13:30:38;;;;;;;4.70;1.90;;;5.10;99.90;;;;;;4995816;28;20639;-88
2022/01/28 13:33:10;;;;;;;5.03;1.50;;;7.60;99.90;;;;;;4995603;28;20684;-88
2022/01/28 13:35:37;;;;;;;6.33;1.93;;;6.50;99.90;;;;;;4995628;28;20183;-88
2022/01/28 13:38:17;;;;;;;6.03;1.80;;;6.90;99.90;;;;;;4995798;28;20448;-88
2022/01/28 13:40:43;;;;;;;4.40;1.90;;;7.20;99.90;;;;;;4995995;28;20179;-87
2022/01/28 13:43:15;;;;;;;5.17;1.87;;;4.90;99.90;;;;;;5013162;28;20175;-88
2022/01/28 13:45:46;;;;;;;5.37;1.70;;;7.00;99.90;;;;;;4995570;28;20247;-88
2022/01/28 13:48:19;;;;;;;3.97;1.90;;;4.90;99.90;;;;;;4995371;28;20164;-88
2022/01/28 13:50:53;;;;;;;6.37;1.97;;;7.10;99.90;;;;;;4995724;28;20266;-88
2022/01/28 13:53:33;;;;;;;5.83;2.10;;;4.80;99.90;;;;;;5013232;28;20204;-88
2022/01/28 13:56:02;;;;;;;5.87;2.00;;;6.50;99.90;;;;;;4995091;28;20227;-88
2022/01/28 13:58:29;;;;;;;3.93;1.73;;;5.10;99.90;;;;;;5012107;28;20238;-88
2022/01/28 14:00:55;;;;;;;3.90;1.87;;;4.80;99.90;;;;;;4996841;28;20184;-88
2022/01/28 14:03:26;;;;;;;5.73;2.17;;;4.70;99.90;;;;;;5020324;28;20160;-88
2022/01/28 14:06:01;;;;;;;2.57;1.50;;;4.60;99.90;;;;;;5019996;28;20165;-88
2022/01/28 14:09:06;;;;;;;5.40;2.43;;;6.30;99.90;;;;;;5020476;28;20243;-88
2022/01/28 14:11:52;;;;;;;5.60;1.77;;;4.60;99.90;;;;;;4923418;29;20194;-88
2022/01/28 14:14:40;;;;;;;5.10;2.10;;;4.60;99.90;;;;;;4958452;29;20187;-88
2022/01/28 14:17:09;;;;;;;6.27;2.23;;;6.00;99.90;;;;;;4942361;29;20179;-88
2022/01/28 14:19:39;;;;;;;4.50;1.83;;;4.60;99.90;;;;;;4930780;29;20203;-87
2022/01/28 14:22:08;;;;;;;6.20;2.10;;;5.90;99.90;;;;;;4919701;29;20203;-88
2022/01/28 14:24:39;;;;;;;6.07;2.47;;;5.20;99.90;;;;;;4919457;29;20183;-88
2022/01/28 14:32:17;;;;;;;2.80;1.77;;;4.50;99.90;;;;;;4934247;29;20318;-88
2022/01/28 14:34:44;;;;;;;4.10;1.93;;;4.40;99.90;;;;;;4918307;29;20203;-89
2022/01/28 14:37:09;;;;;;;5.43;1.80;;;6.40;99.90;;;;;;4918630;29;20183;-89
2022/01/28 14:39:37;;;;;;;4.07;2.03;;;4.40;99.90;;;;;;4917791;29;20183;-86
2022/01/28 14:42:04;;;;;;;4.63;2.13;;;6.20;99.90;;;;;;4917087;29;20266;-89
2022/01/28 14:44:39;;;;;;;4.57;2.23;;;4.20;99.90;;;;;;4933184;28;20176;-89